Decoded Metar for KDDC (DODGE CITY in KS, USA) (IATA:DDC) | Meteo·Mobile Aviation Weather
aviador You're here:

KDDC Decoded Metar

DODGE CITY in KS, USA
Report Time2018-11-19 21:52:00
UTC Time2018-11-19 22:22:37
Flight Rules vfr VFR
Wind330° at 07 kt
W.Decomp.*RWY 32: 7.0 kt HW 0.2 kt RCW
RWY 02: 3.7 kt HW 5.9 kt LCW
W.Rank330° ranks 16
Current wind is below 330° avg. (9.7)
Visibility9999 m
Phenomena:N/A
Clouds:N/A
Expected CloudBase > 5,200 ft AGL from Temp-Dew spread
CeilingNone
Temp10°C (ISA 0)
Dew Point-3°C (40% RH)
AAT5.1°C
QNH1022 hPa
Density Alt2,379 ft
Elevation2,589 ft
Report Wrong Elevation
Raw Report
KDDC 192152Z AUTO 33007KT 10SM CLR 10/M03 A3019 RMK AO2 SLP232
T01001033=

Extra information for KDDC:More info

Metar Taf Metar & Taf Last 4 Metars F.Rules Stats Wind Profile Meteogram Temp Stats Airport Information Weather charts Add Link Nearby VenuesMetar ALERT Operation Metar Decoded Social comments

AIRNAV info for KDDC